createdAt,value
2022-09-15T00:02:25.365Z,100866.09
2022-09-15T00:04:51.965Z,100873.25
2022-09-15T00:07:18.617Z,100871.25
2022-09-15T00:09:45.088Z,100872.06
2022-09-15T00:12:11.787Z,100877.63
2022-09-15T00:14:38.355Z,100873.66
2022-09-15T00:17:05.018Z,100869.31
2022-09-15T00:19:31.665Z,100871.66
2022-09-15T00:21:58.186Z,100874.84
2022-09-15T00:24:24.699Z,100858.19
2022-09-15T00:26:51.260Z,100856.19
2022-09-15T00:29:18.731Z,100846.66
2022-09-15T00:31:45.541Z,100837.53
2022-09-15T00:34:13.817Z,100842.72
2022-09-15T00:36:40.693Z,100838.34
2022-09-15T00:39:07.300Z,100836.75
2022-09-15T00:41:34.585Z,100837.56
2022-09-15T00:44:05.349Z,100841.13
2022-09-15T00:46:41.037Z,100838.31
2022-09-15T00:49:16.404Z,100840.72
2022-09-15T00:51:52.068Z,100847.47
2022-09-15T00:54:30.358Z,100843.47
2022-09-15T00:57:00.422Z,100839.13
2022-09-15T00:59:30.265Z,100851.84
2022-09-15T01:02:15.735Z,100851.41
2022-09-15T01:04:42.857Z,100845.44
2022-09-15T01:07:14.534Z,100834.31
2022-09-15T01:09:51.928Z,100833.50
2022-09-15T01:12:19.327Z,100824.00
2022-09-15T01:14:45.800Z,100824.44
2022-09-15T01:17:29.736Z,100827.22
2022-09-15T01:20:00.124Z,100839.84
2022-09-15T01:22:34.821Z,100829.19
2022-09-15T01:25:08.635Z,100834.72
2022-09-15T01:27:56.069Z,100841.09
2022-09-15T01:30:24.357Z,100823.25
2022-09-15T01:33:14.110Z,100834.34
2022-09-15T01:36:09.523Z,100831.97
2022-09-15T01:38:47.737Z,100834.75
2022-09-15T01:41:25.356Z,100833.56
2022-09-15T01:44:16.277Z,100820.84
2022-09-15T01:46:47.236Z,100829.19
2022-09-15T01:49:25.398Z,100819.28
2022-09-15T01:51:54.182Z,100825.63
2022-09-15T01:54:25.086Z,100823.28
2022-09-15T01:56:51.687Z,100835.56
2022-09-15T01:59:18.241Z,100838.72
2022-09-15T02:01:51.900Z,100826.03
2022-09-15T02:04:28.125Z,100835.16
2022-09-15T02:07:04.083Z,100824.84
2022-09-15T02:09:40.450Z,100824.84
2022-09-15T02:12:33.972Z,100824.47
2022-09-15T02:15:05.762Z,100843.09
2022-09-15T02:17:36.172Z,100848.63
2022-09-15T02:20:17.884Z,100836.75
2022-09-15T02:22:55.835Z,100846.69
2022-09-15T02:25:30.795Z,100841.09
2022-09-15T02:28:02.948Z,100848.63
2022-09-15T02:30:32.125Z,100843.06
2022-09-15T02:33:06.768Z,100847.84
2022-09-15T02:35:36.175Z,100854.97
2022-09-15T02:38:07.102Z,100851.81
2022-09-15T02:40:33.781Z,100846.28
2022-09-15T02:43:05.429Z,100831.56
2022-09-15T02:45:32.459Z,100841.09
2022-09-15T02:47:59.212Z,100840.69
2022-09-15T02:50:26.776Z,100839.53
2022-09-15T02:52:57.072Z,100841.88
2022-09-15T02:55:24.009Z,100838.31
2022-09-15T02:57:50.541Z,100847.44
2022-09-15T03:00:17.591Z,100853.41
2022-09-15T03:02:49.917Z,100848.63
2022-09-15T03:05:19.491Z,100855.75
2022-09-15T03:07:46.045Z,100852.59
2022-09-15T03:10:14.073Z,100854.97
2022-09-15T03:12:42.352Z,100856.19
2022-09-15T03:15:11.109Z,100852.59
2022-09-15T03:17:39.418Z,100856.97
2022-09-15T03:20:07.936Z,100848.25
2022-09-15T03:22:35.056Z,100853.41
2022-09-15T03:25:02.136Z,100860.16
2022-09-15T03:27:28.610Z,100864.53
2022-09-15T03:29:55.107Z,100868.50
2022-09-15T03:32:21.666Z,100871.66
2022-09-15T03:34:48.209Z,100870.09
2022-09-15T03:37:14.922Z,100871.66
2022-09-15T03:39:41.497Z,100865.31
2022-09-15T03:42:08.098Z,100863.75
2022-09-15T03:44:35.456Z,100866.09
2022-09-15T03:47:03.454Z,100864.16
2022-09-15T03:49:30.175Z,100870.06
2022-09-15T03:51:57.104Z,100872.44
2022-09-15T03:54:23.566Z,100866.91
2022-09-15T03:56:51.910Z,100868.09
2022-09-15T03:59:19.733Z,100874.84
2022-09-15T04:01:47.673Z,100881.22
2022-09-15T04:04:14.670Z,100869.28
2022-09-15T04:06:41.701Z,100845.88
2022-09-15T04:09:08.744Z,100858.97
2022-09-15T04:11:35.416Z,100848.25
2022-09-15T04:14:01.902Z,100842.69
2022-09-15T04:16:28.538Z,100835.56
2022-09-15T04:18:56.041Z,100840.69
2022-09-15T04:21:25.496Z,100845.44
2022-09-15T04:23:52.868Z,100845.84
2022-09-15T04:26:24.402Z,100848.97
2022-09-15T04:28:50.902Z,100834.28
2022-09-15T04:31:18.754Z,100840.66
2022-09-15T04:33:46.157Z,100837.88
2022-09-15T04:36:19.099Z,100825.56
2022-09-15T04:38:46.332Z,100831.53
2022-09-15T04:41:14.635Z,100827.19
2022-09-15T04:43:43.075Z,100829.53
2022-09-15T04:46:10.944Z,100825.19
2022-09-15T04:48:37.866Z,100827.22
2022-09-15T04:51:06.733Z,100830.78
2022-09-15T04:53:34.200Z,100826.41
2022-09-15T04:56:09.082Z,100827.56
2022-09-15T04:58:41.109Z,100835.91
2022-09-15T05:01:29.458Z,100840.69
2022-09-15T05:03:56.600Z,100836.28
2022-09-15T05:06:26.903Z,100835.53
2022-09-15T05:08:55.545Z,100832.69
2022-09-15T05:11:22.678Z,100835.50
2022-09-15T05:13:49.575Z,100832.31
2022-09-15T05:16:22.156Z,100837.41
2022-09-15T05:18:50.085Z,100833.91
2022-09-15T05:21:19.200Z,100834.28
2022-09-15T05:23:46.454Z,100839.41
2022-09-15T05:26:15.136Z,100855.72
2022-09-15T05:28:42.083Z,100859.72
2022-09-15T05:31:19.567Z,100866.06
2022-09-15T05:33:48.166Z,100862.94
2022-09-15T05:36:17.336Z,100872.84
2022-09-15T05:38:44.823Z,100877.56
2022-09-15T05:41:13.752Z,100867.19
2022-09-15T05:43:40.349Z,100876.34
2022-09-15T05:46:07.716Z,100873.19
2022-09-15T05:48:35.259Z,100854.84
2022-09-15T05:51:02.357Z,100851.66
2022-09-15T05:53:30.969Z,100848.03
2022-09-15T05:56:00.054Z,100856.38
2022-09-15T05:58:27.584Z,100859.94
2022-09-15T06:00:54.775Z,100870.25
2022-09-15T06:03:26.406Z,100865.44
2022-09-15T06:06:00.612Z,100861.91
2022-09-15T06:08:34.919Z,100865.47
2022-09-15T06:11:07.973Z,100861.50
2022-09-15T06:13:34.839Z,100862.25
2022-09-15T06:16:03.379Z,100868.22
2022-09-15T06:18:30.006Z,100874.16
2022-09-15T06:20:56.546Z,100877.69
2022-09-15T06:23:23.081Z,100882.50
2022-09-15T06:25:49.565Z,100885.28
2022-09-15T06:28:16.057Z,100890.44
2022-09-15T06:30:42.993Z,100894.75
2022-09-15T06:33:09.550Z,100887.22
2022-09-15T06:35:36.095Z,100886.34
2022-09-15T06:38:02.610Z,100895.06
2022-09-15T06:40:29.234Z,100894.34
2022-09-15T06:42:56.702Z,100887.97
2022-09-15T06:45:23.209Z,100880.44
2022-09-15T06:48:13.332Z,100898.69
2022-09-15T06:50:38.776Z,100906.91
2022-09-15T06:53:05.287Z,100901.72
2022-09-15T06:55:31.840Z,100901.25
2022-09-15T06:57:58.365Z,100911.09
2022-09-15T07:00:25.708Z,100905.38
2022-09-15T07:02:53.685Z,100902.69
2022-09-15T07:05:20.423Z,100908.34
2022-09-15T07:07:47.080Z,100912.47
2022-09-15T07:10:13.617Z,100914.56
2022-09-15T07:12:40.125Z,100897.50
2022-09-15T07:15:07.172Z,100896.91
2022-09-15T07:17:33.914Z,100897.28
2022-09-15T07:20:01.267Z,100884.25
2022-09-15T07:22:28.062Z,100884.59
2022-09-15T07:24:54.530Z,100890.63
2022-09-15T07:27:24.993Z,100875.84
2022-09-15T07:29:51.510Z,100881.25
2022-09-15T07:32:18.100Z,100889.03
2022-09-15T07:34:44.611Z,100902.00
2022-09-15T07:37:11.136Z,100898.03
2022-09-15T07:39:37.674Z,100900.50
2022-09-15T07:42:04.443Z,100906.09
2022-09-15T07:44:30.932Z,100911.72
2022-09-15T07:46:57.419Z,100923.81
2022-09-15T07:49:23.947Z,100929.72
2022-09-15T07:51:50.470Z,100935.81
2022-09-15T07:54:21.482Z,100938.16
2022-09-15T07:56:49.241Z,100938.69
2022-09-15T07:59:15.788Z,100937.91
2022-09-15T08:01:42.331Z,100950.81
2022-09-15T08:04:08.869Z,100935.34
2022-09-15T08:06:35.402Z,100946.84
2022-09-15T08:09:02.305Z,100948.75
2022-09-15T08:11:29.830Z,100952.22
2022-09-15T08:13:56.495Z,100941.88
2022-09-15T08:16:25.211Z,100946.69
2022-09-15T08:18:53.207Z,100951.47
2022-09-15T08:21:21.869Z,100929.81
2022-09-15T08:23:56.178Z,100942.41
2022-09-15T08:26:23.565Z,100937.88
2022-09-15T08:28:50.054Z,100941.00
2022-09-15T08:31:17.541Z,100940.28
2022-09-15T08:33:51.878Z,100950.16
2022-09-15T08:36:19.304Z,100945.16
2022-09-15T08:38:46.797Z,100942.66
2022-09-15T08:41:24.367Z,100944.72
2022-09-15T08:44:01.826Z,100945.69
2022-09-15T08:46:43.078Z,100941.56
2022-09-15T08:49:51.175Z,100940.25
2022-09-15T08:52:42.229Z,100949.69
2022-09-15T08:55:36.813Z,100949.06
2022-09-15T08:58:04.996Z,100933.59
2022-09-15T09:00:32.584Z,100939.06
2022-09-15T09:03:11.018Z,100929.88
2022-09-15T09:06:12.537Z,100945.09
2022-09-15T09:09:09.411Z,100942.06
2022-09-15T09:11:57.625Z,100943.84
2022-09-15T09:14:30.952Z,100950.19
2022-09-15T09:17:07.911Z,100962.06
2022-09-15T09:20:06.528Z,100970.91
2022-09-15T09:22:37.647Z,100973.91
2022-09-15T09:25:25.711Z,100977.94
2022-09-15T09:27:53.731Z,100969.81
2022-09-15T09:30:23.301Z,100963.03
2022-09-15T09:32:49.794Z,100975.47
2022-09-15T09:35:24.866Z,100979.50
2022-09-15T09:37:53.413Z,100986.75
2022-09-15T09:40:20.941Z,100985.88
2022-09-15T09:42:47.925Z,100975.59
2022-09-15T09:45:16.834Z,100982.47
2022-09-15T09:47:43.334Z,100979.81
2022-09-15T09:50:35.409Z,100989.75
2022-09-15T09:53:25.713Z,101000.63
2022-09-15T09:55:55.225Z,101004.16
2022-09-15T09:58:24.457Z,101022.00
2022-09-15T10:00:52.823Z,101032.78
2022-09-15T10:03:26.224Z,101050.16
2022-09-15T10:06:01.646Z,101059.41
2022-09-15T10:08:28.233Z,101061.34
2022-09-15T10:11:04.076Z,101057.34
2022-09-15T10:13:30.898Z,101064.41
2022-09-15T10:16:00.913Z,101058.69
2022-09-15T10:18:36.896Z,101059.41
2022-09-15T10:21:06.118Z,101055.34
2022-09-15T10:23:34.268Z,101036.97
2022-09-15T10:26:15.954Z,101030.81
2022-09-15T10:28:43.612Z,101016.53
2022-09-15T10:31:13.531Z,101004.03
2022-09-15T10:33:42.617Z,101001.19
2022-09-15T10:36:19.242Z,100978.13
2022-09-15T10:38:48.990Z,100976.91
2022-09-15T10:41:21.409Z,100959.16
2022-09-15T10:43:50.610Z,100955.03
2022-09-15T10:46:39.456Z,100949.44
2022-09-15T10:49:37.984Z,100950.50
2022-09-15T10:52:29.436Z,100938.28
2022-09-15T10:55:01.677Z,100936.41
2022-09-15T10:57:59.857Z,100936.59
2022-09-15T11:00:32.629Z,100915.66
2022-09-15T11:03:27.313Z,100917.28
2022-09-15T11:06:24.789Z,100915.22
2022-09-15T11:09:13.583Z,100919.94
2022-09-15T11:11:50.948Z,100923.59
2022-09-15T11:14:26.319Z,100922.34
2022-09-15T11:17:39.561Z,100909.63
2022-09-15T11:20:25.431Z,100912.31
2022-09-15T11:23:03.922Z,100907.50
2022-09-15T11:25:35.628Z,100908.72
2022-09-15T11:28:28.923Z,100913.06
2022-09-15T11:31:06.033Z,100911.97
2022-09-15T11:33:42.830Z,100906.16
2022-09-15T11:36:22.906Z,100910.09
2022-09-15T11:38:59.507Z,100913.19
2022-09-15T11:41:38.317Z,100904.88
2022-09-15T11:44:26.402Z,100912.22
2022-09-15T11:47:05.155Z,100911.03
2022-09-15T11:49:34.778Z,100898.75
2022-09-15T11:52:26.847Z,100906.31
2022-09-15T11:55:18.084Z,100908.22
2022-09-15T11:58:04.815Z,100905.59
2022-09-15T12:00:32.102Z,100904.25
2022-09-15T12:03:19.038Z,100906.44
2022-09-15T12:05:52.677Z,100912.59
2022-09-15T12:08:29.146Z,100910.38
2022-09-15T12:10:59.324Z,100912.59
2022-09-15T12:13:26.956Z,100914.78
2022-09-15T12:15:54.661Z,100909.16
2022-09-15T12:18:39.369Z,100913.66
2022-09-15T12:21:18.583Z,100914.84
2022-09-15T12:23:56.038Z,100903.59
2022-09-15T12:26:25.208Z,100909.41
2022-09-15T12:29:02.990Z,100903.13
2022-09-15T12:31:31.252Z,100897.84
2022-09-15T12:34:00.775Z,100908.66
2022-09-15T12:36:46.952Z,100914.78
2022-09-15T12:39:52.987Z,100915.47
2022-09-15T12:42:25.592Z,100919.81
2022-09-15T12:45:00.183Z,100917.06
2022-09-15T12:47:35.078Z,100932.44
2022-09-15T12:50:16.982Z,100932.59
2022-09-15T12:52:48.874Z,100929.19
2022-09-15T12:55:28.668Z,100923.31
2022-09-15T12:58:01.368Z,100928.25
2022-09-15T13:00:54.810Z,100935.81
2022-09-15T13:06:29.558Z,100934.50
2022-09-15T13:09:02.140Z,100934.41
2022-09-15T13:11:36.886Z,100943.41
2022-09-15T13:14:03.510Z,100933.97
2022-09-15T13:16:48.754Z,100936.91
2022-09-15T13:19:28.112Z,100938.91
2022-09-15T13:22:04.468Z,100941.84
2022-09-15T13:24:59.170Z,100948.44
2022-09-15T13:27:35.763Z,100951.13
2022-09-15T13:30:14.967Z,100942.00
2022-09-15T13:33:13.929Z,100944.34
2022-09-15T13:35:52.833Z,100948.28
2022-09-15T13:38:38.694Z,100953.56
2022-09-15T13:41:14.328Z,100956.56
2022-09-15T13:43:47.439Z,100955.69
2022-09-15T13:46:43.534Z,100963.91
2022-09-15T13:49:32.801Z,100957.47
2022-09-15T13:52:07.182Z,100946.56
2022-09-15T13:54:33.695Z,100943.75
2022-09-15T13:57:02.099Z,100949.13
2022-09-15T13:59:32.407Z,100956.69
2022-09-15T14:02:00.520Z,100943.84
2022-09-15T14:04:30.973Z,100959.50
2022-09-15T14:07:01.955Z,100952.22
2022-09-15T14:09:38.498Z,100949.13
2022-09-15T14:12:10.779Z,100967.50
2022-09-15T14:14:51.493Z,100958.84
2022-09-15T14:17:28.934Z,100960.69
2022-09-15T14:20:00.830Z,100958.53
2022-09-15T14:22:32.643Z,100961.84
2022-09-15T14:25:05.191Z,100966.81
2022-09-15T14:27:36.568Z,100979.09
2022-09-15T14:30:07.541Z,100974.03
2022-09-15T14:32:37.871Z,100979.75
2022-09-15T14:35:07.701Z,100985.63
2022-09-15T14:37:34.826Z,100989.22
2022-09-15T14:40:16.512Z,100987.59
2022-09-15T14:42:43.416Z,100998.41
2022-09-15T14:48:01.339Z,100998.53
2022-09-15T14:50:32.914Z,101005.09
2022-09-15T14:53:19.570Z,101016.66
2022-09-15T14:56:00.555Z,101023.63
2022-09-15T14:58:43.357Z,101019.94
2022-09-15T15:01:20.133Z,101008.22
2022-09-15T15:03:49.807Z,101010.88
2022-09-15T15:06:38.088Z,101001.06
2022-09-15T15:09:23.224Z,101003.66
2022-09-15T15:11:53.058Z,101002.16
2022-09-15T15:14:19.940Z,101007.81
2022-09-15T15:16:57.810Z,101003.38
2022-09-15T15:19:42.162Z,101010.63
2022-09-15T15:22:19.976Z,101009.25
2022-09-15T15:24:50.065Z,100993.81
2022-09-15T15:27:32.002Z,100981.25
2022-09-15T15:30:19.489Z,100976.06
2022-09-15T15:32:46.114Z,100980.69
2022-09-15T15:35:17.942Z,100978.81
2022-09-15T15:37:44.574Z,100975.78
2022-09-15T15:40:19.339Z,100974.00
2022-09-15T15:43:00.852Z,100971.09
2022-09-15T15:45:31.134Z,100972.69
2022-09-15T15:47:57.778Z,100956.72
2022-09-15T15:50:27.590Z,100965.44
2022-09-15T15:52:55.055Z,100959.34
2022-09-15T15:55:24.247Z,100971.72
2022-09-15T15:57:54.156Z,100995.13
2022-09-15T16:00:30.517Z,100984.16
2022-09-15T16:02:57.314Z,100992.16
2022-09-15T16:05:27.491Z,100995.88
2022-09-15T16:07:56.093Z,100994.16
2022-09-15T16:10:28.068Z,100996.31
2022-09-15T16:12:54.685Z,100991.41
2022-09-15T16:15:21.698Z,100988.41
2022-09-15T16:17:49.179Z,100987.19
2022-09-15T16:20:16.879Z,100996.63
2022-09-15T16:22:43.707Z,100995.66
2022-09-15T16:25:17.012Z,100995.66
2022-09-15T16:27:43.953Z,101000.03
2022-09-15T16:30:13.953Z,101008.50
2022-09-15T16:32:41.329Z,100998.00
2022-09-15T16:35:19.135Z,101012.66
2022-09-15T16:37:45.894Z,101003.16
2022-09-15T16:40:12.479Z,101012.66
2022-09-15T16:42:39.035Z,101004.84
2022-09-15T16:45:35.162Z,101003.59
2022-09-15T16:48:05.067Z,101005.09
2022-09-15T16:50:31.939Z,101008.19
2022-09-15T16:52:58.697Z,101001.47
2022-09-15T16:56:03.883Z,101010.63
2022-09-15T16:58:31.208Z,101002.28
2022-09-15T17:00:58.109Z,101011.06
2022-09-15T17:03:26.816Z,101008.00
2022-09-15T17:05:55.517Z,101012.03
2022-09-15T17:08:27.037Z,101009.63
2022-09-15T17:10:56.247Z,101012.41
2022-09-15T17:13:26.413Z,101008.09
2022-09-15T17:15:56.296Z,101008.56
2022-09-15T17:18:23.129Z,101014.13
2022-09-15T17:20:50.589Z,101017.72
2022-09-15T17:23:24.585Z,101016.00
2022-09-15T17:25:53.361Z,101017.25
2022-09-15T17:28:22.748Z,101014.56
2022-09-15T17:30:51.488Z,101013.78
2022-09-15T17:33:19.401Z,101019.38
2022-09-15T17:35:46.617Z,101015.44
2022-09-15T17:38:13.204Z,101018.72
2022-09-15T17:40:40.156Z,101011.53
2022-09-15T17:43:14.659Z,101013.50
2022-09-15T17:45:41.666Z,101024.31
2022-09-15T17:48:08.409Z,101006.00
2022-09-15T17:50:37.991Z,101014.31
2022-09-15T17:53:28.259Z,101017.97
2022-09-15T17:55:56.042Z,101016.00
2022-09-15T17:58:26.332Z,101021.59
2022-09-15T18:00:53.942Z,101011.22
2022-09-15T18:03:33.293Z,101016.50
2022-09-15T18:06:03.789Z,101018.09
2022-09-15T18:08:30.856Z,101019.75
2022-09-15T18:10:57.369Z,101028.47
2022-09-15T18:13:29.707Z,101025.28
2022-09-15T18:15:57.874Z,101030.91
2022-09-15T18:18:27.823Z,101028.09
2022-09-15T18:20:56.724Z,101030.59
2022-09-15T18:23:24.982Z,101034.56
2022-09-15T18:25:52.142Z,101031.00
2022-09-15T18:28:19.568Z,101035.84
2022-09-15T18:30:48.574Z,101039.00
2022-09-15T18:33:15.044Z,101047.38
2022-09-15T18:35:42.350Z,101062.94
2022-09-15T18:38:09.331Z,101063.72
2022-09-15T18:40:36.764Z,101058.19
2022-09-15T18:43:03.527Z,101059.00
2022-09-15T18:45:30.062Z,101055.34
2022-09-15T18:47:57.036Z,101062.91
2022-09-15T18:50:25.607Z,101058.19
2022-09-15T18:52:53.031Z,101066.88
2022-09-15T18:55:22.298Z,101068.53
2022-09-15T18:57:49.238Z,101066.91
2022-09-15T19:00:19.375Z,101072.53
2022-09-15T19:02:46.112Z,101074.91
2022-09-15T19:05:15.398Z,101081.69
2022-09-15T19:07:45.423Z,101068.94
2022-09-15T19:10:14.577Z,101078.91
2022-09-15T19:12:41.194Z,101078.50
2022-09-15T19:15:11.330Z,101075.66
2022-09-15T19:17:39.450Z,101079.69
2022-09-15T19:20:08.224Z,101083.25
2022-09-15T19:22:35.773Z,101089.16
2022-09-15T19:25:02.591Z,101077.66
2022-09-15T19:27:29.172Z,101080.88
2022-09-15T19:29:55.872Z,101084.88
2022-09-15T19:32:22.867Z,101086.84
2022-09-15T19:34:49.973Z,101083.28
2022-09-15T19:37:18.991Z,101098.41
2022-09-15T19:39:47.297Z,101093.63
2022-09-15T19:44:42.333Z,101092.81
2022-09-15T19:47:09.455Z,101086.91
2022-09-15T19:49:36.215Z,101102.00
2022-09-15T19:52:02.822Z,101094.88
2022-09-15T19:54:30.645Z,101111.56
2022-09-15T19:56:57.870Z,101091.69
2022-09-15T19:59:28.698Z,101095.28
2022-09-15T20:01:57.492Z,101105.59
2022-09-15T20:04:24.289Z,101100.06
2022-09-15T20:06:50.858Z,101111.56
2022-09-15T20:09:17.703Z,101106.38
2022-09-15T20:11:44.783Z,101112.75
2022-09-15T20:14:11.561Z,101113.16
2022-09-15T20:16:38.167Z,101104.41
2022-09-15T20:19:05.092Z,101103.59
2022-09-15T20:21:51.241Z,101104.41
2022-09-15T20:24:19.946Z,101111.94
2022-09-15T20:26:47.955Z,101102.03
2022-09-15T20:29:14.501Z,101118.72
2022-09-15T20:31:41.329Z,101123.06
2022-09-15T20:34:07.882Z,101112.31
2022-09-15T20:36:36.701Z,101116.31
2022-09-15T20:39:05.782Z,101121.84
2022-09-15T20:41:32.264Z,101125.78
2022-09-15T20:43:59.495Z,101130.16
2022-09-15T20:46:26.235Z,101134.53
2022-09-15T20:48:53.258Z,101119.34
2022-09-15T20:51:22.899Z,101137.56
2022-09-15T20:53:52.240Z,101137.19
2022-09-15T20:56:21.306Z,101136.78
2022-09-15T20:58:47.946Z,101135.53
2022-09-15T21:01:17.174Z,101144.19
2022-09-15T21:03:45.408Z,101145.41
2022-09-15T21:06:17.875Z,101139.78
2022-09-15T21:08:44.741Z,101156.41
2022-09-15T21:11:11.765Z,101159.25
2022-09-15T21:13:40.446Z,101153.66
2022-09-15T21:16:13.564Z,101157.59
2022-09-15T21:18:40.556Z,101160.34
2022-09-15T21:21:09.882Z,101156.34
2022-09-15T21:23:50.595Z,101159.44
2022-09-15T21:26:28.527Z,101153.47
2022-09-15T21:28:56.319Z,101148.19
2022-09-15T21:31:28.197Z,101156.94
2022-09-15T21:33:55.963Z,101155.81
2022-09-15T21:36:28.084Z,101163.00
2022-09-15T21:38:56.360Z,101167.44
2022-09-15T21:41:26.017Z,101158.31
2022-09-15T21:43:54.848Z,101160.31
2022-09-15T21:46:24.335Z,101167.78
2022-09-15T21:48:51.793Z,101169.00
2022-09-15T21:51:24.196Z,101169.38
2022-09-15T21:53:52.456Z,101174.94
2022-09-15T21:56:19.089Z,101175.50
2022-09-15T21:58:45.822Z,101169.84
2022-09-15T22:01:20.609Z,101164.34
2022-09-15T22:03:53.086Z,101158.09
2022-09-15T22:06:21.844Z,101150.56
2022-09-15T22:08:49.020Z,101151.31
2022-09-15T22:11:17.468Z,101150.59
2022-09-15T22:13:44.706Z,101130.00
2022-09-15T22:16:23.087Z,101126.94
2022-09-15T22:18:50.374Z,101121.41
2022-09-15T22:21:19.735Z,101111.13
2022-09-15T22:23:48.062Z,101119.88
2022-09-15T22:26:24.013Z,101115.16
2022-09-15T22:28:50.505Z,101110.81
2022-09-15T22:31:19.257Z,101115.94
2022-09-15T22:33:46.814Z,101124.69
2022-09-15T22:36:15.638Z,101114.38
2022-09-15T22:38:42.986Z,101105.69
2022-09-15T22:41:15.121Z,101108.06
2022-09-15T22:43:43.095Z,101106.97
2022-09-15T22:46:10.801Z,101112.09
2022-09-15T22:48:42.437Z,101118.91
2022-09-15T22:51:10.618Z,101118.53
2022-09-15T22:53:37.182Z,101115.34
2022-09-15T22:56:10.000Z,101123.31
2022-09-15T22:58:37.770Z,101125.69
2022-09-15T23:01:09.989Z,101130.06
2022-09-15T23:03:37.272Z,101124.88
2022-09-15T23:06:05.440Z,101130.44
2022-09-15T23:08:32.854Z,101132.06
2022-09-15T23:11:07.036Z,101134.41
2022-09-15T23:13:34.131Z,101129.63
2022-09-15T23:16:01.268Z,101139.19
2022-09-15T23:18:27.918Z,101130.03
2022-09-15T23:21:08.801Z,101127.28
2022-09-15T23:23:37.603Z,101130.50
2022-09-15T23:26:06.079Z,101134.50
2022-09-15T23:28:33.044Z,101123.34
2022-09-15T23:30:59.963Z,101126.50
2022-09-15T23:33:28.998Z,101124.09
2022-09-15T23:35:58.350Z,101117.31
2022-09-15T23:38:24.848Z,101128.09
2022-09-15T23:40:51.446Z,101124.19
2022-09-15T23:43:18.331Z,101122.94
2022-09-15T23:45:45.755Z,101121.31
2022-09-15T23:48:13.410Z,101121.66
2022-09-15T23:50:40.912Z,101123.22
2022-09-15T23:53:08.061Z,101116.50
2022-09-15T23:55:35.065Z,101116.09
2022-09-15T23:58:01.990Z,101103.28
